createdAt,value
2017-12-04T00:00:14.754Z,14.68
2017-12-04T00:02:42.286Z,13.00
2017-12-04T00:05:10.103Z,13.40
2017-12-04T00:07:37.682Z,14.32
2017-12-04T00:10:05.189Z,14.57
2017-12-04T00:12:32.696Z,13.82
2017-12-04T00:15:00.251Z,15.93
2017-12-04T00:17:27.758Z,14.70
2017-12-04T00:19:55.272Z,12.98
2017-12-04T00:22:22.831Z,13.15
2017-12-04T00:24:50.344Z,14.43
2017-12-04T00:27:17.866Z,12.70
2017-12-04T00:29:45.411Z,12.40
2017-12-04T00:32:12.927Z,13.00
2017-12-04T00:34:41.123Z,14.10
2017-12-04T00:37:09.356Z,13.40
2017-12-04T00:39:38.496Z,14.32
2017-12-04T00:42:06.002Z,14.02
2017-12-04T00:44:33.573Z,15.50
2017-12-04T00:47:01.082Z,14.02
2017-12-04T00:49:28.595Z,14.15
2017-12-04T00:51:56.918Z,15.10
2017-12-04T00:54:24.430Z,13.48
2017-12-04T00:56:51.944Z,15.18
2017-12-04T00:59:19.510Z,15.90
2017-12-04T01:01:47.019Z,14.30
2017-12-04T01:04:14.531Z,16.15
2017-12-04T01:06:42.730Z,13.60
2017-12-04T01:09:10.238Z,15.70
2017-12-04T01:11:37.761Z,16.20
2017-12-04T01:14:05.435Z,12.88
2017-12-04T01:16:33.350Z,15.32
2017-12-04T01:19:00.960Z,16.12
2017-12-04T01:21:28.426Z,16.50
2017-12-04T01:23:56.548Z,16.52
2017-12-04T01:26:24.083Z,16.25
2017-12-04T01:28:51.602Z,15.55
2017-12-04T01:31:19.114Z,16.35
2017-12-04T01:33:47.240Z,14.70
2017-12-04T01:36:14.978Z,16.17
2017-12-04T01:38:42.487Z,17.30
2017-12-04T01:41:10.356Z,13.93
2017-12-04T01:43:37.878Z,15.40
2017-12-04T01:46:05.382Z,16.67
2017-12-04T01:48:32.964Z,14.25
2017-12-04T01:51:01.023Z,15.73
2017-12-04T01:53:29.063Z,15.32
2017-12-04T01:55:56.587Z,13.30
2017-12-04T01:58:24.094Z,15.35
2017-12-04T02:00:51.658Z,15.18
2017-12-04T02:03:19.170Z,15.55
2017-12-04T02:05:46.723Z,15.85
2017-12-04T02:08:14.231Z,17.52
2017-12-04T02:10:41.750Z,15.20
2017-12-04T02:13:09.303Z,13.82
2017-12-04T02:15:36.839Z,15.25
2017-12-04T02:18:04.654Z,12.75
2017-12-04T02:20:32.243Z,14.00
2017-12-04T02:23:00.064Z,13.48
2017-12-04T02:25:27.888Z,16.08
2017-12-04T02:27:55.449Z,15.27
2017-12-04T02:30:24.786Z,15.32
2017-12-04T02:32:52.442Z,13.10
2017-12-04T02:35:19.988Z,15.80
2017-12-04T02:37:47.505Z,13.38
2017-12-04T02:40:15.022Z,12.90
2017-12-04T02:42:42.588Z,14.40
2017-12-04T02:45:10.107Z,15.90
2017-12-04T02:47:37.623Z,14.75
2017-12-04T02:50:05.212Z,16.58
2017-12-04T02:52:32.714Z,16.75
2017-12-04T02:55:00.371Z,16.33
2017-12-04T02:57:27.935Z,11.55
2017-12-04T02:59:55.447Z,12.37
2017-12-04T03:02:24.047Z,13.43
2017-12-04T03:04:53.250Z,12.07
2017-12-04T03:07:21.519Z,10.07
2017-12-04T03:09:49.811Z,10.43
2017-12-04T03:12:17.681Z,10.00
2017-12-04T03:14:46.495Z,11.00
2017-12-04T03:17:14.341Z,9.68
2017-12-04T03:19:43.827Z,10.90
2017-12-04T03:22:12.585Z,8.52
2017-12-04T03:24:41.121Z,11.52
2017-12-04T03:27:11.064Z,11.30
2017-12-04T03:29:39.382Z,9.43
2017-12-04T03:32:07.338Z,13.82
2017-12-04T03:34:35.382Z,14.30
2017-12-04T03:37:03.488Z,15.02
2017-12-04T03:39:31.072Z,10.77
2017-12-04T03:41:58.582Z,8.75
2017-12-04T03:44:26.087Z,9.70
2017-12-04T03:46:53.665Z,9.77
2017-12-04T03:49:21.544Z,9.40
2017-12-04T03:51:49.503Z,9.38
2017-12-04T03:54:17.978Z,9.57
2017-12-04T03:56:46.068Z,8.88
2017-12-04T03:59:13.852Z,10.00
2017-12-04T04:01:41.468Z,10.17
2017-12-04T04:04:08.979Z,9.45
2017-12-04T04:06:36.847Z,8.40
2017-12-04T04:09:04.538Z,9.75
2017-12-04T04:11:32.131Z,9.68
2017-12-04T04:13:59.666Z,9.38
2017-12-04T04:16:27.171Z,8.85
2017-12-04T04:18:54.710Z,9.80
2017-12-04T04:21:22.268Z,9.15
2017-12-04T04:23:49.779Z,9.48
2017-12-04T04:26:17.287Z,8.38
2017-12-04T04:28:44.831Z,9.88
2017-12-04T04:31:12.335Z,10.10
2017-12-04T04:33:39.858Z,10.35
2017-12-04T04:36:07.767Z,12.10
2017-12-04T04:38:35.270Z,10.93
2017-12-04T04:41:02.809Z,9.80
2017-12-04T04:43:31.057Z,10.45
2017-12-04T04:45:58.563Z,11.38
2017-12-04T04:48:26.076Z,10.25
2017-12-04T04:50:54.090Z,9.70
2017-12-04T04:53:21.596Z,11.10
2017-12-04T04:55:49.335Z,11.65
2017-12-04T04:58:17.062Z,10.32
2017-12-04T05:00:44.667Z,9.13
2017-12-04T05:03:12.179Z,10.07
2017-12-04T05:05:39.735Z,11.27
2017-12-04T05:08:07.250Z,9.32
2017-12-04T05:10:34.799Z,10.90
2017-12-04T05:13:02.363Z,10.73
2017-12-04T05:15:29.907Z,12.35
2017-12-04T05:17:57.415Z,9.77
2017-12-04T05:20:24.922Z,10.68
2017-12-04T05:22:52.507Z,10.63
2017-12-04T05:25:20.794Z,10.45
2017-12-04T05:27:49.071Z,14.15
2017-12-04T05:30:17.406Z,12.52
2017-12-04T05:32:45.486Z,12.00
2017-12-04T05:35:12.999Z,12.43
2017-12-04T05:37:40.586Z,11.32
2017-12-04T05:40:08.554Z,12.50
2017-12-04T05:42:36.067Z,15.00
2017-12-04T05:45:03.611Z,15.73
2017-12-04T05:47:31.116Z,13.67
2017-12-04T05:49:58.679Z,13.80
2017-12-04T05:52:26.182Z,12.30
2017-12-04T05:54:53.692Z,11.40
2017-12-04T05:57:21.560Z,13.15
2017-12-04T05:59:49.074Z,12.32
2017-12-04T06:02:16.588Z,10.10
2017-12-04T06:04:44.150Z,9.98
2017-12-04T06:07:12.219Z,10.70
2017-12-04T06:09:39.733Z,10.52
2017-12-04T06:12:07.857Z,10.05
2017-12-04T06:14:35.370Z,12.13
2017-12-04T06:17:03.795Z,9.35
2017-12-04T06:19:31.306Z,11.63
2017-12-04T06:21:59.641Z,14.60
2017-12-04T06:24:27.320Z,13.10
2017-12-04T06:26:55.086Z,13.73
2017-12-04T06:29:22.590Z,16.65
2017-12-04T06:31:50.155Z,14.32
2017-12-04T06:34:17.662Z,15.00
2017-12-04T06:36:45.171Z,13.90
2017-12-04T06:39:12.731Z,15.05
2017-12-04T06:41:40.790Z,12.77
2017-12-04T06:44:08.302Z,12.50
2017-12-04T06:46:35.963Z,13.43
2017-12-04T06:49:03.482Z,12.55
2017-12-04T06:51:31.958Z,14.87
2017-12-04T06:53:59.544Z,13.85
2017-12-04T06:56:27.066Z,14.45
2017-12-04T06:58:54.581Z,14.65
2017-12-04T07:01:22.146Z,15.27
2017-12-04T07:03:49.663Z,13.68
2017-12-04T07:06:17.339Z,13.60
2017-12-04T07:08:44.871Z,16.58
2017-12-04T07:11:13.163Z,16.42
2017-12-04T07:13:40.722Z,17.87
2017-12-04T07:16:08.395Z,14.00
2017-12-04T07:18:35.911Z,16.05
2017-12-04T07:21:04.122Z,15.45
2017-12-04T07:23:31.750Z,17.17
2017-12-04T07:25:59.406Z,16.08
2017-12-04T07:28:27.047Z,17.05
2017-12-04T07:30:56.079Z,17.10
2017-12-04T07:33:23.597Z,16.40
2017-12-04T07:35:51.138Z,19.85
2017-12-04T07:38:18.652Z,18.23
2017-12-04T07:40:46.172Z,18.58
2017-12-04T07:43:13.719Z,18.70
2017-12-04T07:45:41.233Z,18.40
2017-12-04T07:48:08.750Z,18.58
2017-12-04T07:50:36.292Z,18.15
2017-12-04T07:53:03.803Z,15.68
2017-12-04T07:55:31.319Z,19.50
2017-12-04T07:57:59.035Z,13.02
2017-12-04T08:00:27.414Z,16.48
2017-12-04T08:02:54.742Z,17.95
2017-12-04T08:05:22.871Z,18.50
2017-12-04T08:07:50.138Z,16.65
2017-12-04T08:10:17.662Z,17.62
2017-12-04T08:12:45.219Z,13.62
2017-12-04T08:15:13.088Z,13.47
2017-12-04T08:17:40.598Z,13.75
2017-12-04T08:20:08.190Z,12.55
2017-12-04T08:22:35.686Z,14.67
2017-12-04T08:25:03.204Z,13.62
2017-12-04T08:27:30.763Z,12.77
2017-12-04T08:29:58.280Z,12.02
2017-12-04T08:32:26.162Z,12.25
2017-12-04T08:34:53.819Z,12.25
2017-12-04T08:37:21.987Z,10.25
2017-12-04T08:39:49.674Z,11.70
2017-12-04T08:42:17.266Z,11.05
2017-12-04T08:44:44.779Z,12.40
2017-12-04T08:47:12.430Z,10.65
2017-12-04T08:49:39.962Z,11.02
2017-12-04T08:52:07.471Z,11.50
2017-12-04T08:54:34.978Z,10.45
2017-12-04T08:57:02.999Z,9.98
2017-12-04T08:59:30.511Z,10.87
2017-12-04T09:01:58.022Z,9.73
2017-12-04T09:04:25.591Z,10.57
2017-12-04T09:06:53.103Z,10.55
2017-12-04T09:09:20.606Z,10.07
2017-12-04T09:11:47.925Z,8.98
2017-12-04T09:14:15.434Z,9.60
2017-12-04T09:16:42.938Z,10.65
2017-12-04T09:19:10.503Z,14.93
2017-12-04T09:21:38.149Z,12.30
2017-12-04T09:24:05.704Z,14.20
2017-12-04T09:26:33.240Z,13.20
2017-12-04T09:29:00.803Z,14.30
2017-12-04T09:31:28.314Z,11.47
2017-12-04T09:33:55.815Z,13.50
2017-12-04T09:36:23.371Z,15.80
2017-12-04T09:38:50.890Z,13.30
2017-12-04T09:41:18.411Z,14.07
2017-12-04T09:43:45.975Z,13.50
2017-12-04T09:46:13.483Z,13.70
2017-12-04T09:48:40.986Z,13.20
2017-12-04T09:51:08.550Z,12.93
2017-12-04T09:53:36.063Z,12.90
2017-12-04T09:56:03.337Z,14.47
2017-12-04T09:58:30.915Z,12.67
2017-12-04T10:00:58.422Z,12.10
2017-12-04T10:03:25.951Z,14.05
2017-12-04T10:05:53.503Z,12.30
2017-12-04T10:08:21.016Z,13.80
2017-12-04T10:10:48.535Z,13.25
2017-12-04T10:13:16.139Z,13.80
2017-12-04T10:15:43.638Z,11.07
2017-12-04T10:18:11.152Z,12.15
2017-12-04T10:20:38.817Z,11.02
2017-12-04T10:23:06.676Z,12.37
2017-12-04T10:25:34.310Z,11.02
2017-12-04T10:28:01.816Z,12.60
2017-12-04T10:30:29.649Z,12.77
2017-12-04T10:32:57.927Z,12.53
2017-12-04T10:35:26.214Z,12.68
2017-12-04T10:37:54.534Z,13.07
2017-12-04T10:40:22.047Z,11.25
2017-12-04T10:42:49.556Z,10.00
2017-12-04T10:45:17.103Z,11.00
2017-12-04T10:47:44.607Z,10.23
2017-12-04T10:50:12.164Z,10.83
2017-12-04T10:52:39.734Z,9.33
2017-12-04T10:55:07.247Z,6.70
2017-12-04T10:57:34.763Z,9.95
2017-12-04T11:00:02.318Z,12.17
2017-12-04T11:02:29.875Z,12.70
2017-12-04T11:04:58.179Z,13.07
2017-12-04T11:07:25.663Z,12.77
2017-12-04T11:09:53.166Z,10.53
2017-12-04T11:12:20.684Z,11.40
2017-12-04T11:14:49.259Z,9.25
2017-12-04T11:17:16.772Z,11.37
2017-12-04T11:19:44.278Z,10.80
2017-12-04T11:22:12.771Z,12.97
2017-12-04T11:24:40.314Z,11.07
2017-12-04T11:27:07.822Z,10.80
2017-12-04T11:29:35.334Z,12.07
2017-12-04T11:32:02.906Z,10.63
2017-12-04T11:34:30.417Z,8.00
2017-12-04T11:36:57.929Z,7.90
2017-12-04T11:39:25.489Z,9.00
2017-12-04T11:41:53.019Z,7.93
2017-12-04T11:44:20.537Z,10.70
2017-12-04T11:46:48.110Z,11.57
2017-12-04T11:49:15.738Z,9.10
2017-12-04T11:51:43.354Z,8.70
2017-12-04T11:54:10.896Z,9.00
2017-12-04T11:56:38.411Z,8.85
2017-12-04T11:59:05.923Z,9.98
2017-12-04T12:01:33.495Z,8.48
2017-12-04T12:04:01.015Z,6.82
2017-12-04T12:06:28.527Z,8.23
2017-12-04T12:08:56.087Z,6.30
2017-12-04T12:11:23.595Z,7.63
2017-12-04T12:13:51.103Z,6.00
2017-12-04T12:16:18.666Z,7.60
2017-12-04T12:18:46.171Z,8.00
2017-12-04T12:21:13.683Z,10.23
2017-12-04T12:23:41.251Z,9.00
2017-12-04T12:26:08.754Z,8.50
2017-12-04T12:28:36.269Z,8.57
2017-12-04T12:31:04.198Z,10.37
2017-12-04T12:33:31.800Z,7.30
2017-12-04T12:35:59.305Z,8.50
2017-12-04T12:38:26.859Z,15.13
2017-12-04T12:40:54.373Z,10.45
2017-12-04T12:43:21.877Z,11.43
2017-12-04T12:45:49.442Z,10.40
2017-12-04T12:48:16.967Z,8.70
2017-12-04T12:50:44.467Z,8.00
2017-12-04T12:53:12.047Z,7.70
2017-12-04T12:55:39.586Z,9.10
2017-12-04T12:58:07.095Z,8.97
2017-12-04T13:00:34.671Z,8.53
2017-12-04T13:03:02.180Z,8.70
2017-12-04T13:05:29.682Z,9.20
2017-12-04T13:07:57.262Z,8.63
2017-12-04T13:10:24.768Z,8.40
2017-12-04T13:12:52.291Z,10.83
2017-12-04T13:15:20.615Z,8.80
2017-12-04T13:17:48.226Z,9.53
2017-12-04T13:20:15.739Z,8.73
2017-12-04T13:22:43.755Z,8.63
2017-12-04T13:25:12.030Z,7.37
2017-12-04T13:27:39.294Z,8.55
2017-12-04T13:30:06.868Z,8.30
2017-12-04T13:32:46.098Z,9.40
2017-12-04T13:35:25.471Z,10.30
2017-12-04T13:37:53.046Z,9.57
2017-12-04T13:40:20.552Z,9.98
2017-12-04T13:42:48.089Z,10.18
2017-12-04T13:45:15.602Z,9.57
2017-12-04T13:47:43.640Z,10.45
2017-12-04T13:50:11.155Z,8.97
2017-12-04T13:52:38.656Z,10.40
2017-12-04T13:55:06.429Z,9.38
2017-12-04T13:57:33.943Z,10.27
2017-12-04T14:00:02.219Z,10.50
2017-12-04T14:02:30.555Z,9.73
2017-12-04T14:04:58.066Z,7.60
2017-12-04T14:07:25.584Z,8.60
2017-12-04T14:09:53.147Z,8.03
2017-12-04T14:12:20.720Z,8.33
2017-12-04T14:14:48.230Z,7.40
2017-12-04T14:17:15.786Z,8.57
2017-12-04T14:19:43.296Z,9.07
2017-12-04T14:22:10.811Z,8.57
2017-12-04T14:24:38.362Z,8.50
2017-12-04T14:27:05.861Z,8.47
2017-12-04T14:29:33.367Z,7.53
2017-12-04T14:32:00.934Z,8.32
2017-12-04T14:34:28.619Z,8.30
2017-12-04T14:36:57.442Z,8.43
2017-12-04T14:39:25.828Z,8.40
2017-12-04T14:41:54.750Z,7.27
2017-12-04T14:44:22.259Z,8.80
2017-12-04T14:46:49.827Z,6.82
2017-12-04T14:49:17.330Z,7.50
2017-12-04T14:51:44.951Z,7.57
2017-12-04T14:54:12.491Z,9.87
2017-12-04T14:56:40.008Z,7.78
2017-12-04T14:59:07.530Z,6.97
2017-12-04T15:01:35.093Z,6.50
2017-12-04T15:04:02.616Z,7.15
2017-12-04T15:06:30.127Z,6.30
2017-12-04T15:08:58.466Z,6.33
2017-12-04T15:11:25.963Z,7.10
2017-12-04T15:13:53.489Z,6.85
2017-12-04T15:16:21.056Z,7.30
2017-12-04T15:18:48.565Z,6.87
2017-12-04T15:21:16.066Z,7.40
2017-12-04T15:23:43.592Z,8.00
2017-12-04T15:26:11.090Z,6.80
2017-12-04T15:28:38.595Z,7.73
2017-12-04T15:31:06.154Z,7.53
2017-12-04T15:33:33.662Z,7.40
2017-12-04T15:36:01.107Z,6.40
2017-12-04T15:38:28.776Z,6.00
2017-12-04T15:40:56.359Z,6.20
2017-12-04T15:43:23.995Z,7.27
2017-12-04T15:45:51.355Z,7.55
2017-12-04T15:48:18.923Z,6.97
2017-12-04T15:50:46.495Z,6.00
2017-12-04T15:53:14.010Z,7.00
2017-12-04T15:55:41.691Z,7.77
2017-12-04T15:58:09.263Z,8.53
2017-12-04T16:00:36.780Z,9.10
2017-12-04T16:03:04.357Z,7.97
2017-12-04T16:05:31.859Z,8.07
2017-12-04T16:07:59.355Z,6.90
2017-12-04T16:10:26.870Z,6.72
2017-12-04T16:12:54.430Z,10.00
2017-12-04T16:15:21.942Z,7.93
2017-12-04T16:17:49.444Z,7.50
2017-12-04T16:20:17.291Z,8.03
2017-12-04T16:22:44.805Z,7.50
2017-12-04T16:25:12.318Z,9.83
2017-12-04T16:27:41.670Z,9.00
2017-12-04T16:30:09.174Z,9.40
2017-12-04T16:32:36.686Z,8.00
2017-12-04T16:35:04.354Z,8.60
2017-12-04T16:37:32.679Z,8.87
2017-12-04T16:40:00.538Z,9.60
2017-12-04T16:42:28.115Z,8.37
2017-12-04T16:44:55.464Z,9.10
2017-12-04T16:47:23.733Z,7.47
2017-12-04T16:49:51.481Z,8.40
2017-12-04T16:52:19.236Z,8.70
2017-12-04T16:54:46.747Z,8.43
2017-12-04T16:57:14.261Z,8.50
2017-12-04T16:59:41.579Z,8.90
2017-12-04T17:02:09.091Z,8.57
2017-12-04T17:04:36.678Z,7.23
2017-12-04T17:07:04.939Z,7.20
2017-12-04T17:09:32.443Z,7.20
2017-12-04T17:11:59.975Z,5.63
2017-12-04T17:14:27.674Z,6.62
2017-12-04T17:16:55.298Z,6.63
2017-12-04T17:19:22.827Z,8.47
2017-12-04T17:21:50.338Z,6.90
2017-12-04T17:24:17.904Z,7.35
2017-12-04T17:26:45.413Z,9.37
2017-12-04T17:29:12.923Z,8.47
2017-12-04T17:31:40.502Z,7.70
2017-12-04T17:34:08.014Z,6.32
2017-12-04T17:36:36.286Z,7.60
2017-12-04T17:39:04.611Z,7.18
2017-12-04T17:41:32.116Z,7.00
2017-12-04T17:43:59.633Z,7.17
2017-12-04T17:46:27.627Z,7.40
2017-12-04T17:48:55.128Z,6.93
2017-12-04T17:51:22.846Z,7.40
2017-12-04T17:53:50.751Z,7.60
2017-12-04T17:56:19.018Z,6.80
2017-12-04T17:58:47.290Z,6.10
2017-12-04T18:01:15.622Z,7.43
2017-12-04T18:03:43.122Z,6.60
2017-12-04T18:06:10.627Z,6.40
2017-12-04T18:08:38.177Z,6.17
2017-12-04T18:11:05.710Z,7.40
2017-12-04T18:13:33.253Z,7.40
2017-12-04T18:16:00.803Z,9.07
2017-12-04T18:18:28.066Z,7.30
2017-12-04T18:20:55.583Z,7.37
2017-12-04T18:23:23.151Z,10.20
2017-12-04T18:25:50.850Z,8.63
2017-12-04T18:28:18.427Z,10.40
2017-12-04T18:30:46.787Z,9.53
2017-12-04T18:33:14.299Z,9.40
2017-12-04T18:35:41.807Z,11.13
2017-12-04T18:38:09.387Z,10.87
2017-12-04T18:40:36.914Z,11.67
2017-12-04T18:43:04.418Z,11.20
2017-12-04T18:45:32.021Z,10.50
2017-12-04T18:48:00.004Z,10.80
2017-12-04T18:50:28.264Z,10.60
2017-12-04T18:52:56.005Z,12.00
2017-12-04T18:55:23.523Z,11.27
2017-12-04T18:57:51.286Z,10.20
2017-12-04T19:00:19.720Z,8.80
2017-12-04T19:02:47.261Z,10.40
2017-12-04T19:05:14.785Z,11.13
2017-12-04T19:07:42.412Z,8.77
2017-12-04T19:10:09.932Z,10.60
2017-12-04T19:12:37.692Z,11.80
2017-12-04T19:15:05.246Z,9.40
2017-12-04T19:17:32.794Z,11.43
2017-12-04T19:20:00.309Z,8.40
2017-12-04T19:22:27.928Z,9.23
2017-12-04T19:24:55.503Z,10.67
2017-12-04T19:27:23.059Z,11.35
2017-12-04T19:29:50.639Z,13.50
2017-12-04T19:32:19.160Z,16.40
2017-12-04T19:34:47.401Z,15.33
2017-12-04T19:37:14.951Z,12.80
2017-12-04T19:39:43.342Z,10.30
2017-12-04T19:42:11.243Z,10.50
2017-12-04T19:44:38.804Z,10.00
2017-12-04T19:47:07.127Z,12.53
2017-12-04T19:49:34.910Z,10.17
2017-12-04T19:52:02.819Z,11.13
2017-12-04T19:54:31.202Z,11.60
2017-12-04T19:56:58.724Z,12.03
2017-12-04T19:59:26.273Z,9.70
2017-12-04T20:01:53.991Z,11.80
2017-12-04T20:04:21.560Z,11.90
2017-12-04T20:06:49.109Z,11.13
2017-12-04T20:09:16.683Z,12.53
2017-12-04T20:11:44.227Z,13.23
2017-12-04T20:14:12.548Z,10.75
2017-12-04T20:16:40.183Z,12.50
2017-12-04T20:19:08.314Z,16.42
2017-12-04T20:21:36.131Z,13.00
2017-12-04T20:24:03.938Z,11.93
2017-12-04T20:26:31.471Z,13.20
2017-12-04T20:28:59.193Z,13.30
2017-12-04T20:31:26.791Z,13.10
2017-12-04T20:33:54.346Z,12.63
2017-12-04T20:36:21.853Z,12.80
2017-12-04T20:38:49.386Z,9.97
2017-12-04T20:41:16.935Z,11.33
2017-12-04T20:43:44.447Z,10.32
2017-12-04T20:46:11.961Z,9.43
2017-12-04T20:48:39.519Z,9.97
2017-12-04T20:51:07.049Z,10.83
2017-12-04T20:53:34.571Z,10.90
2017-12-04T20:56:02.993Z,11.90
2017-12-04T20:58:30.511Z,12.83
2017-12-04T21:00:57.950Z,11.37
2017-12-04T21:03:25.539Z,11.37
2017-12-04T21:05:53.047Z,10.20
2017-12-04T21:08:26.867Z,11.00
2017-12-04T21:11:06.183Z,9.50
2017-12-04T21:13:45.606Z,9.37
2017-12-04T21:16:24.874Z,8.33
2017-12-04T21:18:52.778Z,9.80
2017-12-04T21:21:20.679Z,9.53
2017-12-04T21:23:48.927Z,9.50
2017-12-04T21:26:17.636Z,8.93
2017-12-04T21:28:45.397Z,11.67
2017-12-04T21:31:12.909Z,9.27
2017-12-04T21:33:41.587Z,10.10
2017-12-04T21:36:09.538Z,8.87
2017-12-04T21:38:37.055Z,9.50
2017-12-04T21:41:05.526Z,9.00
2017-12-04T21:43:33.078Z,12.17
2017-12-04T21:46:01.359Z,11.37
2017-12-04T21:48:29.592Z,11.30
2017-12-04T21:50:57.107Z,13.00
2017-12-04T21:53:24.614Z,9.07
2017-12-04T21:55:52.643Z,10.73
2017-12-04T21:58:20.215Z,10.43
2017-12-04T22:00:48.347Z,14.60
2017-12-04T22:03:16.866Z,15.00
2017-12-04T22:05:44.451Z,11.00
2017-12-04T22:08:12.007Z,11.60
2017-12-04T22:10:39.579Z,12.00
2017-12-04T22:13:07.082Z,11.57
2017-12-04T22:15:34.591Z,12.10
2017-12-04T22:18:02.159Z,13.73
2017-12-04T22:20:29.659Z,14.20
2017-12-04T22:22:57.175Z,16.80
2017-12-04T22:25:25.123Z,12.50
2017-12-04T22:27:53.130Z,10.47
2017-12-04T22:30:20.635Z,12.40
2017-12-04T22:32:48.299Z,9.65
2017-12-04T22:35:16.354Z,9.13
2017-12-04T22:37:43.887Z,9.90
2017-12-04T22:40:12.219Z,9.60
2017-12-04T22:42:40.319Z,10.60
2017-12-04T22:45:07.836Z,10.37
2017-12-04T22:47:35.489Z,9.33
2017-12-04T22:50:03.564Z,7.97
2017-12-04T22:52:31.100Z,8.60
2017-12-04T22:54:59.510Z,8.63
2017-12-04T22:57:27.006Z,8.13
2017-12-04T22:59:54.510Z,9.90
2017-12-04T23:02:22.339Z,8.10
2017-12-04T23:04:50.416Z,7.90
2017-12-04T23:07:17.918Z,8.90
2017-12-04T23:09:45.488Z,10.10
2017-12-04T23:12:12.991Z,9.30
2017-12-04T23:14:40.490Z,8.40
2017-12-04T23:17:08.050Z,8.00
2017-12-04T23:19:35.550Z,9.70
2017-12-04T23:22:03.059Z,8.90
2017-12-04T23:24:30.623Z,8.77
2017-12-04T23:26:58.187Z,9.47
2017-12-04T23:29:25.690Z,9.10
2017-12-04T23:31:53.262Z,9.50
2017-12-04T23:34:20.775Z,10.87
2017-12-04T23:36:48.338Z,10.73
2017-12-04T23:39:15.906Z,8.43
2017-12-04T23:41:43.410Z,9.67
2017-12-04T23:44:10.915Z,9.37
2017-12-04T23:46:38.461Z,11.10
2017-12-04T23:49:05.983Z,10.37
2017-12-04T23:51:33.511Z,10.13
2017-12-04T23:54:01.051Z,9.87
2017-12-04T23:56:29.331Z,10.10
2017-12-04T23:58:57.619Z,9.50
